sensor_id;sensor_type;location;lat;lon;timestamp;pressure;altitude;pressure_sealevel;temperature;humidity
24558;BME280;12726;49.148;8.582;2023-12-28T00:01:05;100468.44;;;4.56;100.00
24558;BME280;12726;49.148;8.582;2023-12-28T00:03:51;100476.31;;;4.42;100.00
24558;BME280;12726;49.148;8.582;2023-12-28T00:06:36;100470.00;;;4.34;100.00
24558;BME280;12726;49.148;8.582;2023-12-28T00:09:21;100468.53;;;4.32;100.00
24558;BME280;12726;49.148;8.582;2023-12-28T00:12:07;100472.19;;;4.31;100.00
24558;BME280;12726;49.148;8.582;2023-12-28T00:14:52;100473.34;;;4.28;100.00
24558;BME280;12726;49.148;8.582;2023-12-28T00:17:39;100465.06;;;4.23;100.00
24558;BME280;12726;49.148;8.582;2023-12-28T00:20:25;100477.22;;;4.18;100.00
24558;BME280;12726;49.148;8.582;2023-12-28T00:23:10;100478.41;;;4.07;100.00
24558;BME280;12726;49.148;8.582;2023-12-28T00:25:55;100477.09;;;3.95;100.00
24558;BME280;12726;49.148;8.582;2023-12-28T00:28:41;100477.75;;;3.89;100.00
24558;BME280;12726;49.148;8.582;2023-12-28T00:31:26;100478.59;;;3.81;100.00
24558;BME280;12726;49.148;8.582;2023-12-28T00:34:13;100483.09;;;3.73;100.00
24558;BME280;12726;49.148;8.582;2023-12-28T00:36:58;100479.25;;;3.67;100.00
24558;BME280;12726;49.148;8.582;2023-12-28T00:39:43;100486.72;;;3.64;100.00
24558;BME280;12726;49.148;8.582;2023-12-28T00:42:31;100494.72;;;3.64;100.00
24558;BME280;12726;49.148;8.582;2023-12-28T00:45:16;100487.41;;;3.58;100.00
24558;BME280;12726;49.148;8.582;2023-12-28T00:48:01;100498.41;;;3.54;100.00
24558;BME280;12726;49.148;8.582;2023-12-28T00:50:48;100493.06;;;3.54;100.00
24558;BME280;12726;49.148;8.582;2023-12-28T00:53:33;100500.53;;;3.51;100.00
24558;BME280;12726;49.148;8.582;2023-12-28T00:56:19;100495.53;;;3.56;100.00
24558;BME280;12726;49.148;8.582;2023-12-28T00:59:05;100491.88;;;3.57;100.00
24558;BME280;12726;49.148;8.582;2023-12-28T01:01:50;100497.56;;;3.54;100.00
24558;BME280;12726;49.148;8.582;2023-12-28T01:04:36;100492.06;;;3.47;100.00
24558;BME280;12726;49.148;8.582;2023-12-28T01:07:22;100497.03;;;3.42;100.00
24558;BME280;12726;49.148;8.582;2023-12-28T01:10:08;100497.53;;;3.38;100.00
24558;BME280;12726;49.148;8.582;2023-12-28T01:12:53;100515.31;;;3.37;100.00
24558;BME280;12726;49.148;8.582;2023-12-28T01:15:38;100512.16;;;3.34;100.00
24558;BME280;12726;49.148;8.582;2023-12-28T01:18:24;100500.53;;;3.43;100.00
24558;BME280;12726;49.148;8.582;2023-12-28T01:21:09;100502.03;;;3.53;100.00
24558;BME280;12726;49.148;8.582;2023-12-28T01:23:56;100505.56;;;3.62;100.00
24558;BME280;12726;49.148;8.582;2023-12-28T01:26:41;100506.56;;;3.69;100.00
24558;BME280;12726;49.148;8.582;2023-12-28T01:29:27;100491.06;;;3.73;100.00
24558;BME280;12726;49.148;8.582;2023-12-28T01:32:12;100499.91;;;3.81;100.00
24558;BME280;12726;49.148;8.582;2023-12-28T01:34:57;100493.75;;;3.81;100.00
24558;BME280;12726;49.148;8.582;2023-12-28T01:37:43;100496.41;;;3.81;100.00
24558;BME280;12726;49.148;8.582;2023-12-28T01:40:30;100500.56;;;3.83;100.00
24558;BME280;12726;49.148;8.582;2023-12-28T01:43:15;100517.72;;;3.89;100.00
24558;BME280;12726;49.148;8.582;2023-12-28T01:46:01;100525.84;;;3.87;100.00
24558;BME280;12726;49.148;8.582;2023-12-28T01:48:48;100524.03;;;3.88;99.99
24558;BME280;12726;49.148;8.582;2023-12-28T01:51:34;100528.38;;;3.89;100.00
24558;BME280;12726;49.148;8.582;2023-12-28T01:54:20;100542.53;;;3.98;98.86
24558;BME280;12726;49.148;8.582;2023-12-28T01:57:08;100528.69;;;4.02;98.53
24558;BME280;12726;49.148;8.582;2023-12-28T01:59:53;100530.31;;;4.19;96.93
24558;BME280;12726;49.148;8.582;2023-12-28T02:02:39;100535.84;;;4.18;96.99
24558;BME280;12726;49.148;8.582;2023-12-28T02:05:26;100540.66;;;4.22;96.28
24558;BME280;12726;49.148;8.582;2023-12-28T02:08:11;100524.81;;;4.29;96.24
24558;BME280;12726;49.148;8.582;2023-12-28T02:10:56;100529.16;;;4.38;96.03
24558;BME280;12726;49.148;8.582;2023-12-28T02:13:43;100543.78;;;4.42;96.12
24558;BME280;12726;49.148;8.582;2023-12-28T02:16:33;100537.13;;;4.46;96.83
24558;BME280;12726;49.148;8.582;2023-12-28T02:19:25;100532.44;;;4.56;95.50
24558;BME280;12726;49.148;8.582;2023-12-28T02:22:16;100530.06;;;4.69;94.45
24558;BME280;12726;49.148;8.582;2023-12-28T02:25:06;100529.88;;;4.79;93.85
24558;BME280;12726;49.148;8.582;2023-12-28T02:27:52;100535.47;;;4.92;93.15
24558;BME280;12726;49.148;8.582;2023-12-28T02:30:37;100533.78;;;4.99;92.56
24558;BME280;12726;49.148;8.582;2023-12-28T02:33:27;100546.53;;;5.20;89.70
24558;BME280;12726;49.148;8.582;2023-12-28T02:36:18;100534.81;;;5.29;89.54
24558;BME280;12726;49.148;8.582;2023-12-28T02:39:06;100543.38;;;5.47;87.97
24558;BME280;12726;49.148;8.582;2023-12-28T02:41:53;100541.81;;;5.61;86.91
24558;BME280;12726;49.148;8.582;2023-12-28T02:44:39;100543.78;;;5.67;87.48
24558;BME280;12726;49.148;8.582;2023-12-28T02:47:24;100545.06;;;5.71;86.74
24558;BME280;12726;49.148;8.582;2023-12-28T02:50:09;100527.88;;;5.74;86.81
24558;BME280;12726;49.148;8.582;2023-12-28T02:52:55;100534.88;;;5.75;86.53
24558;BME280;12726;49.148;8.582;2023-12-28T02:55:40;100535.06;;;5.73;86.81
24558;BME280;12726;49.148;8.582;2023-12-28T02:58:27;100540.56;;;5.72;87.78
24558;BME280;12726;49.148;8.582;2023-12-28T03:01:12;100549.13;;;5.67;88.96
24558;BME280;12726;49.148;8.582;2023-12-28T03:03:57;100548.91;;;5.69;87.78
24558;BME280;12726;49.148;8.582;2023-12-28T03:06:46;100550.28;;;5.65;88.46
24558;BME280;12726;49.148;8.582;2023-12-28T03:09:31;100547.06;;;5.69;88.13
24558;BME280;12726;49.148;8.582;2023-12-28T03:12:16;100545.63;;;5.67;89.16
24558;BME280;12726;49.148;8.582;2023-12-28T03:15:04;100550.78;;;5.68;87.92
24558;BME280;12726;49.148;8.582;2023-12-28T03:17:50;100554.91;;;5.71;88.04
24558;BME280;12726;49.148;8.582;2023-12-28T03:20:35;100560.25;;;5.71;88.01
24558;BME280;12726;49.148;8.582;2023-12-28T03:23:20;100569.28;;;5.70;89.20
24558;BME280;12726;49.148;8.582;2023-12-28T03:26:06;100553.78;;;5.65;91.74
24558;BME280;12726;49.148;8.582;2023-12-28T03:28:51;100551.47;;;5.62;91.42
24558;BME280;12726;49.148;8.582;2023-12-28T03:31:40;100555.16;;;5.61;92.51
24558;BME280;12726;49.148;8.582;2023-12-28T03:34:25;100553.50;;;5.60;94.35
24558;BME280;12726;49.148;8.582;2023-12-28T03:37:12;100547.00;;;5.55;95.08
24558;BME280;12726;49.148;8.582;2023-12-28T03:39:58;100538.19;;;5.54;95.74
24558;BME280;12726;49.148;8.582;2023-12-28T03:42:43;100535.03;;;5.50;97.57
24558;BME280;12726;49.148;8.582;2023-12-28T03:45:29;100547.53;;;5.50;98.78
24558;BME280;12726;49.148;8.582;2023-12-28T03:48:16;100535.38;;;5.47;99.35
24558;BME280;12726;49.148;8.582;2023-12-28T03:51:01;100540.06;;;5.45;100.00
24558;BME280;12726;49.148;8.582;2023-12-28T03:53:46;100551.94;;;5.43;100.00
24558;BME280;12726;49.148;8.582;2023-12-28T03:56:32;100548.59;;;5.41;100.00
24558;BME280;12726;49.148;8.582;2023-12-28T03:59:19;100547.97;;;5.39;100.00
24558;BME280;12726;49.148;8.582;2023-12-28T04:02:05;100542.97;;;5.36;100.00
24558;BME280;12726;49.148;8.582;2023-12-28T04:04:51;100540.28;;;5.36;100.00
24558;BME280;12726;49.148;8.582;2023-12-28T04:07:37;100545.09;;;5.40;100.00
24558;BME280;12726;49.148;8.582;2023-12-28T04:10:29;100545.59;;;5.44;100.00
24558;BME280;12726;49.148;8.582;2023-12-28T04:13:15;100541.03;;;5.53;100.00
24558;BME280;12726;49.148;8.582;2023-12-28T04:16:01;100532.03;;;5.54;100.00
24558;BME280;12726;49.148;8.582;2023-12-28T04:18:46;100531.81;;;5.55;100.00
24558;BME280;12726;49.148;8.582;2023-12-28T04:21:33;100526.81;;;5.60;100.00
24558;BME280;12726;49.148;8.582;2023-12-28T04:24:18;100517.06;;;5.67;100.00
24558;BME280;12726;49.148;8.582;2023-12-28T04:27:03;100529.75;;;5.65;100.00
24558;BME280;12726;49.148;8.582;2023-12-28T04:29:49;100535.28;;;5.64;100.00
24558;BME280;12726;49.148;8.582;2023-12-28T04:32:34;100553.50;;;5.60;100.00
24558;BME280;12726;49.148;8.582;2023-12-28T04:35:19;100560.84;;;5.58;100.00
24558;BME280;12726;49.148;8.582;2023-12-28T04:38:08;100558.19;;;5.58;100.00
24558;BME280;12726;49.148;8.582;2023-12-28T04:40:53;100555.16;;;5.61;100.00
24558;BME280;12726;49.148;8.582;2023-12-28T04:43:38;100560.31;;;5.63;100.00
24558;BME280;12726;49.148;8.582;2023-12-28T04:46:24;100571.78;;;5.71;100.00
24558;BME280;12726;49.148;8.582;2023-12-28T04:49:10;100585.50;;;5.68;100.00
24558;BME280;12726;49.148;8.582;2023-12-28T04:51:55;100580.47;;;5.73;100.00
24558;BME280;12726;49.148;8.582;2023-12-28T04:54:42;100583.78;;;5.75;100.00
24558;BME280;12726;49.148;8.582;2023-12-28T04:57:27;100581.28;;;5.74;100.00
24558;BME280;12726;49.148;8.582;2023-12-28T05:00:14;100594.66;;;5.74;100.00
24558;BME280;12726;49.148;8.582;2023-12-28T05:02:59;100594.94;;;5.79;100.00
24558;BME280;12726;49.148;8.582;2023-12-28T05:05:44;100596.72;;;5.86;100.00
24558;BME280;12726;49.148;8.582;2023-12-28T05:08:30;100581.13;;;5.98;100.00
24558;BME280;12726;49.148;8.582;2023-12-28T05:11:16;100575.06;;;6.04;100.00
24558;BME280;12726;49.148;8.582;2023-12-28T05:14:02;100577.91;;;6.11;100.00
24558;BME280;12726;49.148;8.582;2023-12-28T05:16:47;100572.81;;;6.16;100.00
24558;BME280;12726;49.148;8.582;2023-12-28T05:19:32;100577.94;;;6.40;100.00
24558;BME280;12726;49.148;8.582;2023-12-28T05:22:18;100567.59;;;6.60;100.00
24558;BME280;12726;49.148;8.582;2023-12-28T05:25:04;100582.31;;;6.56;100.00
24558;BME280;12726;49.148;8.582;2023-12-28T05:27:50;100573.00;;;6.52;100.00
24558;BME280;12726;49.148;8.582;2023-12-28T05:30:36;100575.38;;;6.47;100.00
24558;BME280;12726;49.148;8.582;2023-12-28T05:33:21;100585.78;;;6.42;100.00
24558;BME280;12726;49.148;8.582;2023-12-28T05:36:07;100584.50;;;6.38;100.00
24558;BME280;12726;49.148;8.582;2023-12-28T05:38:52;100602.91;;;6.33;100.00
24558;BME280;12726;49.148;8.582;2023-12-28T05:41:37;100605.78;;;6.31;100.00
24558;BME280;12726;49.148;8.582;2023-12-28T05:44:24;100606.81;;;6.30;100.00
24558;BME280;12726;49.148;8.582;2023-12-28T05:47:09;100605.97;;;6.29;100.00
24558;BME280;12726;49.148;8.582;2023-12-28T05:49:54;100612.16;;;6.30;100.00
24558;BME280;12726;49.148;8.582;2023-12-28T05:52:39;100621.16;;;6.29;100.00
24558;BME280;12726;49.148;8.582;2023-12-28T05:55:25;100620.16;;;6.30;100.00
24558;BME280;12726;49.148;8.582;2023-12-28T05:58:10;100606.97;;;6.28;100.00
24558;BME280;12726;49.148;8.582;2023-12-28T06:00:57;100620.00;;;6.32;100.00
24558;BME280;12726;49.148;8.582;2023-12-28T06:03:42;100613.59;;;6.33;100.00
24558;BME280;12726;49.148;8.582;2023-12-28T06:06:27;100612.81;;;6.32;100.00
24558;BME280;12726;49.148;8.582;2023-12-28T06:09:12;100605.59;;;6.33;100.00
24558;BME280;12726;49.148;8.582;2023-12-28T06:11:57;100605.91;;;6.38;100.00
24558;BME280;12726;49.148;8.582;2023-12-28T06:14:43;100612.19;;;6.45;100.00
24558;BME280;12726;49.148;8.582;2023-12-28T06:17:32;100624.34;;;6.47;100.00
24558;BME280;12726;49.148;8.582;2023-12-28T06:20:18;100627.41;;;6.44;100.00
24558;BME280;12726;49.148;8.582;2023-12-28T06:23:03;100632.91;;;6.43;100.00
24558;BME280;12726;49.148;8.582;2023-12-28T06:25:49;100634.31;;;6.39;100.00
24558;BME280;12726;49.148;8.582;2023-12-28T06:28:34;100637.31;;;6.36;100.00
24558;BME280;12726;49.148;8.582;2023-12-28T06:31:19;100647.19;;;6.35;100.00
24558;BME280;12726;49.148;8.582;2023-12-28T06:34:06;100647.19;;;6.35;100.00
24558;BME280;12726;49.148;8.582;2023-12-28T06:36:51;100650.16;;;6.40;100.00
24558;BME280;12726;49.148;8.582;2023-12-28T06:39:37;100654.50;;;6.41;100.00
24558;BME280;12726;49.148;8.582;2023-12-28T06:42:22;100650.25;;;6.47;100.00
24558;BME280;12726;49.148;8.582;2023-12-28T06:45:08;100644.72;;;6.48;100.00
24558;BME280;12726;49.148;8.582;2023-12-28T06:47:53;100652.75;;;6.48;100.00
24558;BME280;12726;49.148;8.582;2023-12-28T06:50:42;100648.41;;;6.47;100.00
24558;BME280;12726;49.148;8.582;2023-12-28T06:53:28;100653.25;;;6.52;100.00
24558;BME280;12726;49.148;8.582;2023-12-28T06:56:13;100650.19;;;6.55;100.00
24558;BME280;12726;49.148;8.582;2023-12-28T06:58:58;100660.91;;;6.55;100.00
24558;BME280;12726;49.148;8.582;2023-12-28T07:01:44;100658.44;;;6.53;100.00
24558;BME280;12726;49.148;8.582;2023-12-28T07:04:29;100652.03;;;6.54;100.00
24558;BME280;12726;49.148;8.582;2023-12-28T07:07:18;100662.94;;;6.53;100.00
24558;BME280;12726;49.148;8.582;2023-12-28T07:10:04;100659.59;;;6.51;100.00
24558;BME280;12726;49.148;8.582;2023-12-28T07:12:49;100662.28;;;6.51;100.00
24558;BME280;12726;49.148;8.582;2023-12-28T07:15:34;100658.78;;;6.50;100.00
24558;BME280;12726;49.148;8.582;2023-12-28T07:18:20;100659.22;;;6.54;100.00
24558;BME280;12726;49.148;8.582;2023-12-28T07:21:05;100656.38;;;6.55;100.00
24558;BME280;12726;49.148;8.582;2023-12-28T07:23:55;100661.91;;;6.54;100.00
24558;BME280;12726;49.148;8.582;2023-12-28T07:26:40;100665.78;;;6.51;100.00
24558;BME280;12726;49.148;8.582;2023-12-28T07:29:25;100669.47;;;6.50;100.00
24558;BME280;12726;49.148;8.582;2023-12-28T07:32:11;100672.97;;;6.51;100.00
24558;BME280;12726;49.148;8.582;2023-12-28T07:34:56;100675.66;;;6.51;100.00
24558;BME280;12726;49.148;8.582;2023-12-28T07:37:43;100676.31;;;6.53;100.00
24558;BME280;12726;49.148;8.582;2023-12-28T07:40:29;100681.47;;;6.54;100.00
24558;BME280;12726;49.148;8.582;2023-12-28T07:43:15;100685.97;;;6.54;100.00
24558;BME280;12726;49.148;8.582;2023-12-28T07:46:00;100690.31;;;6.55;100.00
24558;BME280;12726;49.148;8.582;2023-12-28T07:48:45;100692.47;;;6.59;100.00
24558;BME280;12726;49.148;8.582;2023-12-28T07:51:31;100695.78;;;6.61;100.00
24558;BME280;12726;49.148;8.582;2023-12-28T07:54:16;100695.50;;;6.56;100.00
24558;BME280;12726;49.148;8.582;2023-12-28T07:57:03;100695.50;;;6.56;100.00
24558;BME280;12726;49.148;8.582;2023-12-28T07:59:49;100687.13;;;6.59;100.00
24558;BME280;12726;49.148;8.582;2023-12-28T08:02:34;100691.47;;;6.60;100.00
24558;BME280;12726;49.148;8.582;2023-12-28T08:05:20;100690.44;;;6.61;100.00
24558;BME280;12726;49.148;8.582;2023-12-28T08:08:05;100693.41;;;6.66;100.00
24558;BME280;12726;49.148;8.582;2023-12-28T08:10:51;100692.41;;;6.67;100.00
24558;BME280;12726;49.148;8.582;2023-12-28T08:13:38;100693.88;;;6.70;100.00
24558;BME280;12726;49.148;8.582;2023-12-28T08:16:23;100692.69;;;6.73;100.00
24558;BME280;12726;49.148;8.582;2023-12-28T08:19:09;100686.78;;;6.77;100.00
24558;BME280;12726;49.148;8.582;2023-12-28T08:21:54;100686.44;;;6.80;100.00
24558;BME280;12726;49.148;8.582;2023-12-28T08:24:40;100698.50;;;6.76;100.00
24558;BME280;12726;49.148;8.582;2023-12-28T08:27:25;100689.84;;;6.74;100.00
24558;BME280;12726;49.148;8.582;2023-12-28T08:30:13;100707.00;;;6.80;100.00
24558;BME280;12726;49.148;8.582;2023-12-28T08:32:58;100698.16;;;6.79;100.00
24558;BME280;12726;49.148;8.582;2023-12-28T08:35:44;100700.66;;;6.81;100.00
24558;BME280;12726;49.148;8.582;2023-12-28T08:38:29;100702.13;;;6.83;100.00
24558;BME280;12726;49.148;8.582;2023-12-28T08:41:18;100707.78;;;6.88;100.00
24558;BME280;12726;49.148;8.582;2023-12-28T08:44:03;100707.28;;;6.85;100.00
24558;BME280;12726;49.148;8.582;2023-12-28T08:46:50;100688.56;;;6.85;100.00
24558;BME280;12726;49.148;8.582;2023-12-28T08:49:35;100689.56;;;6.84;100.00
24558;BME280;12726;49.148;8.582;2023-12-28T08:52:20;100691.41;;;6.83;100.00
24558;BME280;12726;49.148;8.582;2023-12-28T08:55:06;100702.50;;;6.80;100.00
24558;BME280;12726;49.148;8.582;2023-12-28T08:57:52;100696.13;;;6.81;100.00
24558;BME280;12726;49.148;8.582;2023-12-28T09:00:38;100696.31;;;6.80;100.00
24558;BME280;12726;49.148;8.582;2023-12-28T09:03:24;100703.34;;;6.81;100.00
24558;BME280;12726;49.148;8.582;2023-12-28T09:06:09;100702.50;;;6.80;100.00
24558;BME280;12726;49.148;8.582;2023-12-28T09:08:54;100697.31;;;6.79;100.00
24558;BME280;12726;49.148;8.582;2023-12-28T09:11:40;100696.47;;;6.78;100.00
24558;BME280;12726;49.148;8.582;2023-12-28T09:14:26;100705.34;;;6.79;100.00
24558;BME280;12726;49.148;8.582;2023-12-28T09:17:11;100706.19;;;6.79;100.00
24558;BME280;12726;49.148;8.582;2023-12-28T09:19:58;100713.38;;;6.79;100.00
24558;BME280;12726;49.148;8.582;2023-12-28T09:22:45;100715.22;;;6.78;100.00
24558;BME280;12726;49.148;8.582;2023-12-28T09:25:31;100729.25;;;6.80;100.00
24558;BME280;12726;49.148;8.582;2023-12-28T09:28:17;100727.03;;;6.84;100.00
24558;BME280;12726;49.148;8.582;2023-12-28T09:31:02;100744.22;;;6.89;100.00
24558;BME280;12726;49.148;8.582;2023-12-28T09:33:48;100741.34;;;6.91;100.00
24558;BME280;12726;49.148;8.582;2023-12-28T09:36:34;100734.34;;;6.90;100.00
24558;BME280;12726;49.148;8.582;2023-12-28T09:39:20;100734.53;;;6.88;100.00
24558;BME280;12726;49.148;8.582;2023-12-28T09:42:09;100736.19;;;6.89;100.00
24558;BME280;12726;49.148;8.582;2023-12-28T09:44:59;100732.50;;;6.90;100.00
24558;BME280;12726;49.148;8.582;2023-12-28T09:47:44;100723.28;;;6.93;100.00
24558;BME280;12726;49.148;8.582;2023-12-28T09:50:30;100719.44;;;6.95;100.00
24558;BME280;12726;49.148;8.582;2023-12-28T09:53:17;100739.63;;;6.98;100.00
24558;BME280;12726;49.148;8.582;2023-12-28T09:56:03;100728.19;;;7.04;100.00
24558;BME280;12726;49.148;8.582;2023-12-28T09:58:50;100720.09;;;7.12;100.00
24558;BME280;12726;49.148;8.582;2023-12-28T10:01:38;100712.63;;;7.22;100.00
24558;BME280;12726;49.148;8.582;2023-12-28T10:04:24;100713.19;;;7.32;100.00
24558;BME280;12726;49.148;8.582;2023-12-28T10:07:09;100720.69;;;7.37;100.00
24558;BME280;12726;49.148;8.582;2023-12-28T10:09:56;100718.28;;;7.42;100.00
24558;BME280;12726;49.148;8.582;2023-12-28T10:12:42;100723.63;;;7.42;100.00
24558;BME280;12726;49.148;8.582;2023-12-28T10:15:27;100711.06;;;7.42;100.00
24558;BME280;12726;49.148;8.582;2023-12-28T10:18:13;100710.88;;;7.44;100.00
24558;BME280;12726;49.148;8.582;2023-12-28T10:20:58;100710.50;;;7.47;100.00
24558;BME280;12726;49.148;8.582;2023-12-28T10:23:44;100706.47;;;7.51;100.00
24558;BME280;12726;49.148;8.582;2023-12-28T10:26:31;100696.75;;;7.50;100.00
24558;BME280;12726;49.148;8.582;2023-12-28T10:29:16;100698.25;;;7.53;100.00
24558;BME280;12726;49.148;8.582;2023-12-28T10:32:02;100697.19;;;7.54;100.00
24558;BME280;12726;49.148;8.582;2023-12-28T10:34:48;100699.16;;;7.60;100.00
24558;BME280;12726;49.148;8.582;2023-12-28T10:37:35;100700.78;;;7.61;100.00
24558;BME280;12726;49.148;8.582;2023-12-28T10:40:21;100711.16;;;7.64;100.00
24558;BME280;12726;49.148;8.582;2023-12-28T10:43:08;100703.56;;;7.67;100.00
24558;BME280;12726;49.148;8.582;2023-12-28T10:45:56;100695.34;;;7.69;100.00
24558;BME280;12726;49.148;8.582;2023-12-28T10:48:43;100690.56;;;7.64;100.00
24558;BME280;12726;49.148;8.582;2023-12-28T10:51:34;100699.97;;;7.60;100.00
24558;BME280;12726;49.148;8.582;2023-12-28T10:54:29;100690.47;;;7.58;100.00
24558;BME280;12726;49.148;8.582;2023-12-28T10:57:23;100689.63;;;7.57;100.00
24558;BME280;12726;49.148;8.582;2023-12-28T11:00:14;100690.66;;;7.56;100.00
24558;BME280;12726;49.148;8.582;2023-12-28T11:03:06;100702.56;;;7.54;100.00
24558;BME280;12726;49.148;8.582;2023-12-28T11:05:55;100696.66;;;7.58;100.00
24558;BME280;12726;49.148;8.582;2023-12-28T11:08:41;100686.47;;;7.54;100.00
24558;BME280;12726;49.148;8.582;2023-12-28T11:11:30;100680.28;;;7.53;100.00
24558;BME280;12726;49.148;8.582;2023-12-28T11:14:17;100684.19;;;7.51;100.00
24558;BME280;12726;49.148;8.582;2023-12-28T11:17:04;100690.75;;;7.48;100.00
24558;BME280;12726;49.148;8.582;2023-12-28T11:19:49;100682.69;;;7.48;100.00
24558;BME280;12726;49.148;8.582;2023-12-28T11:22:36;100689.28;;;7.45;100.00
24558;BME280;12726;49.148;8.582;2023-12-28T11:25:22;100677.25;;;7.41;100.00
24558;BME280;12726;49.148;8.582;2023-12-28T11:28:12;100681.13;;;7.39;100.00
24558;BME280;12726;49.148;8.582;2023-12-28T11:30:58;100683.00;;;7.38;100.00
24558;BME280;12726;49.148;8.582;2023-12-28T11:33:46;100672.91;;;7.40;100.00
24558;BME280;12726;49.148;8.582;2023-12-28T11:36:34;100667.72;;;7.39;100.00
24558;BME280;12726;49.148;8.582;2023-12-28T11:39:29;100668.78;;;7.38;100.00
24558;BME280;12726;49.148;8.582;2023-12-28T11:42:19;100669.78;;;7.37;100.00
24558;BME280;12726;49.148;8.582;2023-12-28T11:45:06;100661.75;;;7.37;100.00
24558;BME280;12726;49.148;8.582;2023-12-28T11:48:01;100664.63;;;7.35;100.00
24558;BME280;12726;49.148;8.582;2023-12-28T11:50:48;100664.03;;;7.40;100.00
24558;BME280;12726;49.148;8.582;2023-12-28T11:53:33;100646.31;;;7.39;100.00
24558;BME280;12726;49.148;8.582;2023-12-28T11:56:19;100643.94;;;7.44;100.00
24558;BME280;12726;49.148;8.582;2023-12-28T11:59:05;100634.41;;;7.41;100.00
24558;BME280;12726;49.148;8.582;2023-12-28T12:01:51;100642.06;;;7.44;100.00
24558;BME280;12726;49.148;8.582;2023-12-28T12:04:36;100640.03;;;7.46;100.00
24558;BME280;12726;49.148;8.582;2023-12-28T12:07:23;100635.31;;;7.48;100.00
24558;BME280;12726;49.148;8.582;2023-12-28T12:10:14;100633.47;;;7.49;100.00
24558;BME280;12726;49.148;8.582;2023-12-28T12:12:59;100632.63;;;7.48;100.00
24558;BME280;12726;49.148;8.582;2023-12-28T12:15:50;100644.00;;;7.51;100.00
24558;BME280;12726;49.148;8.582;2023-12-28T12:18:35;100648.13;;;7.53;100.00
24558;BME280;12726;49.148;8.582;2023-12-28T12:21:21;100636.41;;;7.54;100.00
24558;BME280;12726;49.148;8.582;2023-12-28T12:24:09;100638.25;;;7.54;100.00
24558;BME280;12726;49.148;8.582;2023-12-28T12:26:55;100639.91;;;7.55;100.00
24558;BME280;12726;49.148;8.582;2023-12-28T12:29:40;100639.31;;;7.53;100.00
24558;BME280;12726;49.148;8.582;2023-12-28T12:32:26;100632.91;;;7.54;100.00
24558;BME280;12726;49.148;8.582;2023-12-28T12:35:12;100628.38;;;7.54;100.00
24558;BME280;12726;49.148;8.582;2023-12-28T12:37:59;100623.66;;;7.56;100.00
24558;BME280;12726;49.148;8.582;2023-12-28T12:40:46;100612.94;;;7.56;100.00
24558;BME280;12726;49.148;8.582;2023-12-28T12:43:31;100613.41;;;7.60;100.00
24558;BME280;12726;49.148;8.582;2023-12-28T12:46:17;100615.88;;;7.61;100.00
24558;BME280;12726;49.148;8.582;2023-12-28T12:49:02;100622.25;;;7.60;100.00
24558;BME280;12726;49.148;8.582;2023-12-28T12:51:48;100621.00;;;7.56;100.00
24558;BME280;12726;49.148;8.582;2023-12-28T12:54:35;100618.78;;;7.60;100.00
24558;BME280;12726;49.148;8.582;2023-12-28T12:57:21;100623.09;;;7.61;100.00
24558;BME280;12726;49.148;8.582;2023-12-28T13:00:09;100615.88;;;7.61;100.00
24558;BME280;12726;49.148;8.582;2023-12-28T13:02:59;100609.69;;;7.61;100.00
24558;BME280;12726;49.148;8.582;2023-12-28T13:05:44;100610.16;;;7.64;100.00
24558;BME280;12726;49.148;8.582;2023-12-28T13:08:30;100606.91;;;7.69;100.00
24558;BME280;12726;49.148;8.582;2023-12-28T13:11:15;100623.06;;;7.75;100.00
24558;BME280;12726;49.148;8.582;2023-12-28T13:14:02;100614.00;;;7.76;100.00
24558;BME280;12726;49.148;8.582;2023-12-28T13:16:48;100619.38;;;7.76;100.00
24558;BME280;12726;49.148;8.582;2023-12-28T13:19:38;100622.78;;;7.85;100.00
24558;BME280;12726;49.148;8.582;2023-12-28T13:22:23;100620.16;;;7.92;100.00
24558;BME280;12726;49.148;8.582;2023-12-28T13:25:10;100615.63;;;7.92;100.00
24558;BME280;12726;49.148;8.582;2023-12-28T13:27:56;100613.31;;;7.89;100.00
24558;BME280;12726;49.148;8.582;2023-12-28T13:30:42;100613.72;;;7.86;100.00
24558;BME280;12726;49.148;8.582;2023-12-28T13:33:27;100616.56;;;7.84;100.00
24558;BME280;12726;49.148;8.582;2023-12-28T13:36:13;100604.66;;;7.87;100.00
24558;BME280;12726;49.148;8.582;2023-12-28T13:38:59;100616.75;;;7.83;100.00
24558;BME280;12726;49.148;8.582;2023-12-28T13:41:44;100620.03;;;7.78;100.00
24558;BME280;12726;49.148;8.582;2023-12-28T13:44:29;100615.84;;;7.76;100.00
24558;BME280;12726;49.148;8.582;2023-12-28T13:47:16;100610.88;;;7.73;100.00
24558;BME280;12726;49.148;8.582;2023-12-28T13:50:02;100611.25;;;7.70;100.00
24558;BME280;12726;49.148;8.582;2023-12-28T13:52:47;100611.25;;;7.70;100.00
24558;BME280;12726;49.148;8.582;2023-12-28T13:55:33;100607.38;;;7.72;100.00
24558;BME280;12726;49.148;8.582;2023-12-28T13:58:19;100593.78;;;7.74;100.00
24558;BME280;12726;49.148;8.582;2023-12-28T14:01:04;100589.88;;;7.76;100.00
24558;BME280;12726;49.148;8.582;2023-12-28T14:03:51;100577.13;;;7.78;100.00
24558;BME280;12726;49.148;8.582;2023-12-28T14:06:36;100564.38;;;7.80;100.00
24558;BME280;12726;49.148;8.582;2023-12-28T14:09:21;100559.22;;;7.79;100.00
24558;BME280;12726;49.148;8.582;2023-12-28T14:12:07;100561.31;;;7.83;100.00
24558;BME280;12726;49.148;8.582;2023-12-28T14:14:52;100554.75;;;7.86;100.00
24558;BME280;12726;49.148;8.582;2023-12-28T14:17:38;100569.16;;;7.85;100.00
24558;BME280;12726;49.148;8.582;2023-12-28T14:20:24;100561.13;;;7.85;100.00
24558;BME280;12726;49.148;8.582;2023-12-28T14:23:12;100555.56;;;7.86;100.00
24558;BME280;12726;49.148;8.582;2023-12-28T14:25:58;100553.97;;;7.92;100.00
24558;BME280;12726;49.148;8.582;2023-12-28T14:28:44;100558.13;;;7.95;100.00